createdAt,value
2022-09-12T00:01:36.626Z,15.30
2022-09-12T00:04:03.445Z,15.13
2022-09-12T00:06:32.892Z,15.21
2022-09-12T00:09:03.699Z,15.50
2022-09-12T00:11:31.405Z,15.60
2022-09-12T00:14:01.152Z,15.49
2022-09-12T00:16:31.061Z,15.57
2022-09-12T00:18:58.041Z,15.29
2022-09-12T00:21:25.416Z,15.56
2022-09-12T00:23:52.378Z,15.53
2022-09-12T00:26:20.675Z,15.62
2022-09-12T00:28:48.343Z,15.54
2022-09-12T00:31:18.935Z,16.01
2022-09-12T00:33:46.063Z,15.79
2022-09-12T00:36:15.729Z,15.72
2022-09-12T00:38:44.143Z,15.86
2022-09-12T00:41:18.051Z,15.68
2022-09-12T00:43:48.771Z,15.77
2022-09-12T00:46:20.805Z,15.85
2022-09-12T00:49:00.498Z,15.97
2022-09-12T00:51:30.678Z,15.84
2022-09-12T00:54:00.246Z,16.23
2022-09-12T00:56:27.663Z,15.73
2022-09-12T00:59:02.475Z,16.07
2022-09-12T01:01:32.354Z,16.39
2022-09-12T01:04:09.228Z,16.40
2022-09-12T01:06:49.244Z,16.04
2022-09-12T01:09:19.302Z,16.73
2022-09-12T01:11:48.679Z,16.57
2022-09-12T01:14:17.108Z,16.43
2022-09-12T01:16:45.428Z,17.02
2022-09-12T01:19:49.859Z,16.78
2022-09-12T01:22:25.430Z,16.72
2022-09-12T01:24:55.114Z,16.59
2022-09-12T01:27:36.691Z,16.24
2022-09-12T01:30:40.475Z,16.42
2022-09-12T01:33:28.603Z,16.59
2022-09-12T01:36:34.629Z,16.42
2022-09-12T01:39:06.090Z,16.57
2022-09-12T01:41:52.845Z,16.30
2022-09-12T01:44:45.241Z,16.66
2022-09-12T01:47:41.428Z,16.30
2022-09-12T01:50:16.403Z,16.43
2022-09-12T01:53:35.302Z,16.29
2022-09-12T01:56:14.458Z,16.05
2022-09-12T01:58:54.205Z,16.72
2022-09-12T02:01:47.570Z,16.68
2022-09-12T02:04:19.166Z,16.73
2022-09-12T02:06:58.095Z,16.79
2022-09-12T02:09:39.999Z,16.91
2022-09-12T02:12:11.635Z,16.93
2022-09-12T02:14:44.524Z,16.92
2022-09-12T02:17:15.291Z,16.50
2022-09-12T02:19:52.207Z,16.68
2022-09-12T02:22:22.943Z,16.70
2022-09-12T02:24:54.200Z,16.72
2022-09-12T02:27:23.928Z,16.83
2022-09-12T02:29:50.918Z,16.86
2022-09-12T02:32:26.521Z,16.90
2022-09-12T02:35:07.475Z,17.22
2022-09-12T02:37:42.571Z,17.13
2022-09-12T02:40:09.932Z,16.92
2022-09-12T02:42:37.696Z,17.05
2022-09-12T02:45:05.573Z,17.02
2022-09-12T02:47:48.062Z,17.35
2022-09-12T02:50:15.003Z,17.42
2022-09-12T02:52:43.101Z,16.86
2022-09-12T02:55:11.792Z,17.18
2022-09-12T02:57:38.875Z,17.08
2022-09-12T03:00:07.390Z,16.76
2022-09-12T03:03:20.426Z,17.01
2022-09-12T03:05:52.638Z,16.85
2022-09-12T03:08:28.421Z,17.46
2022-09-12T03:11:14.067Z,17.41
2022-09-12T03:13:46.724Z,17.32
2022-09-12T03:16:31.892Z,17.42
2022-09-12T03:19:20.320Z,17.40
2022-09-12T03:22:29.179Z,17.38
2022-09-12T03:25:14.936Z,17.03
2022-09-12T03:28:06.262Z,17.04
2022-09-12T03:30:41.920Z,16.96
2022-09-12T03:33:11.914Z,16.96
2022-09-12T03:35:39.183Z,16.80
2022-09-12T03:38:08.120Z,17.01
2022-09-12T03:40:36.149Z,17.15
2022-09-12T03:43:03.921Z,16.79
2022-09-12T03:45:31.206Z,17.09
2022-09-12T03:47:58.780Z,16.98
2022-09-12T03:50:25.819Z,16.60
2022-09-12T03:52:52.611Z,16.71
2022-09-12T03:55:20.011Z,16.73
2022-09-12T03:57:46.727Z,16.78
2022-09-12T04:00:17.667Z,16.56
2022-09-12T04:02:46.531Z,16.51
2022-09-12T04:05:13.251Z,16.60
2022-09-12T04:07:39.899Z,16.48
2022-09-12T04:10:07.288Z,16.76
2022-09-12T04:12:35.639Z,16.70
2022-09-12T04:15:02.741Z,16.65
2022-09-12T04:17:29.388Z,16.68
2022-09-12T04:19:56.051Z,16.76
2022-09-12T04:22:22.734Z,16.68
2022-09-12T04:24:49.497Z,16.92
2022-09-12T04:27:16.163Z,16.50
2022-09-12T04:29:42.802Z,16.65
2022-09-12T04:32:09.645Z,16.52
2022-09-12T04:34:36.423Z,16.91
2022-09-12T04:37:03.123Z,16.63
2022-09-12T04:39:29.805Z,16.61
2022-09-12T04:41:56.655Z,16.56
2022-09-12T04:44:23.332Z,16.51
2022-09-12T04:46:50.250Z,16.09
2022-09-12T04:49:17.519Z,16.16
2022-09-12T04:51:44.461Z,16.18
2022-09-12T04:54:13.992Z,16.22
2022-09-12T04:56:42.296Z,15.87
2022-09-12T04:59:10.980Z,15.85
2022-09-12T05:01:37.653Z,15.98
2022-09-12T05:04:04.564Z,16.33
2022-09-12T05:06:34.607Z,15.91
2022-09-12T05:09:02.759Z,16.21
2022-09-12T05:12:02.197Z,15.94
2022-09-12T05:14:19.770Z,16.11
2022-09-12T05:16:49.449Z,16.04
2022-09-12T05:19:17.332Z,15.71
2022-09-12T05:21:44.018Z,15.94
2022-09-12T05:24:11.462Z,16.06
2022-09-12T05:26:38.499Z,15.86
2022-09-12T05:29:06.211Z,15.65
2022-09-12T05:31:33.015Z,16.12
2022-09-12T05:33:59.691Z,15.73
2022-09-12T05:36:29.381Z,15.49
2022-09-12T05:38:56.563Z,15.47
2022-09-12T05:41:26.265Z,15.39
2022-09-12T05:43:58.049Z,15.52
2022-09-12T05:46:50.554Z,15.33
2022-09-12T05:49:17.316Z,15.36
2022-09-12T05:51:45.960Z,15.70
2022-09-12T05:54:18.830Z,15.36
2022-09-12T05:56:45.743Z,15.08
2022-09-12T05:59:18.861Z,15.56
2022-09-12T06:01:46.586Z,14.87
2022-09-12T06:04:13.563Z,15.18
2022-09-12T06:06:43.512Z,15.27
2022-09-12T06:09:10.501Z,15.27
2022-09-12T06:11:39.095Z,15.16
2022-09-12T06:14:05.831Z,15.47
2022-09-12T06:16:34.489Z,15.59
2022-09-12T06:19:04.200Z,15.60
2022-09-12T06:21:31.402Z,15.50
2022-09-12T06:23:59.044Z,15.26
2022-09-12T06:26:26.227Z,15.46
2022-09-12T06:28:55.000Z,15.49
2022-09-12T06:31:25.317Z,15.63
2022-09-12T06:33:54.091Z,15.28
2022-09-12T06:36:27.465Z,15.51
2022-09-12T06:39:02.873Z,15.43
2022-09-12T06:41:31.382Z,15.73
2022-09-12T06:43:58.847Z,15.66
2022-09-12T06:46:26.748Z,15.66
2022-09-12T06:48:55.641Z,15.59
2022-09-12T06:51:22.416Z,16.09
2022-09-12T06:53:49.803Z,15.72
2022-09-12T06:56:19.352Z,15.88
2022-09-12T06:58:48.131Z,16.02
2022-09-12T07:01:26.627Z,15.81
2022-09-12T07:03:56.001Z,16.06
2022-09-12T07:06:24.756Z,16.20
2022-09-12T07:08:51.437Z,16.75
2022-09-12T07:11:20.217Z,17.35
2022-09-12T07:13:50.518Z,17.50
2022-09-12T07:16:19.899Z,17.33
2022-09-12T07:18:57.949Z,17.54
2022-09-12T07:21:25.412Z,18.20
2022-09-12T07:23:52.155Z,17.75
2022-09-12T07:26:19.298Z,17.42
2022-09-12T07:28:46.109Z,17.69
2022-09-12T07:31:17.907Z,17.20
2022-09-12T07:33:45.113Z,17.19
2022-09-12T07:36:14.521Z,17.26
2022-09-12T07:38:42.150Z,17.78
2022-09-12T07:41:13.717Z,18.31
2022-09-12T07:43:40.631Z,18.53
2022-09-12T07:46:08.408Z,18.08
2022-09-12T07:48:35.485Z,18.62
2022-09-12T07:51:04.652Z,18.28
2022-09-12T07:53:34.145Z,18.31
2022-09-12T07:56:03.019Z,18.48
2022-09-12T07:58:31.135Z,19.30
2022-09-12T08:01:27.761Z,20.24
2022-09-12T08:03:57.456Z,20.08
2022-09-12T08:06:25.901Z,20.38
2022-09-12T08:08:54.791Z,20.79
2022-09-12T08:11:23.117Z,20.44
2022-09-12T08:13:55.467Z,20.78
2022-09-12T08:16:25.695Z,21.03
2022-09-12T08:18:52.572Z,20.94
2022-09-12T08:21:24.638Z,21.43
2022-09-12T08:23:56.773Z,21.54
2022-09-12T08:26:24.208Z,21.39
2022-09-12T08:28:52.109Z,21.35
2022-09-12T08:31:21.379Z,21.74
2022-09-12T08:33:48.496Z,21.60
2022-09-12T08:36:21.492Z,21.73
2022-09-12T08:38:50.342Z,22.49
2022-09-12T08:41:33.072Z,22.46
2022-09-12T08:44:37.514Z,22.51
2022-09-12T08:47:21.531Z,21.48
2022-09-12T08:49:48.610Z,21.69
2022-09-12T08:52:22.168Z,21.06
2022-09-12T08:54:50.831Z,19.98
2022-09-12T08:57:19.204Z,18.68
2022-09-12T08:59:48.397Z,17.97
2022-09-12T09:02:39.528Z,17.67
2022-09-12T09:05:22.680Z,17.29
2022-09-12T09:08:10.831Z,17.64
2022-09-12T09:10:49.654Z,17.48
2022-09-12T09:13:46.703Z,17.31
2022-09-12T09:16:38.394Z,17.69
2022-09-12T09:19:12.359Z,17.81
2022-09-12T09:21:50.701Z,17.65
2022-09-12T09:24:22.211Z,17.68
2022-09-12T09:26:48.813Z,18.31
2022-09-12T09:29:15.513Z,18.44
2022-09-12T09:31:45.394Z,18.40
2022-09-12T09:34:34.512Z,19.23
2022-09-12T09:37:16.492Z,18.92
2022-09-12T09:40:03.833Z,19.56
2022-09-12T09:42:45.966Z,19.44
2022-09-12T09:45:19.889Z,19.46
2022-09-12T09:47:56.188Z,19.35
2022-09-12T09:50:24.243Z,19.22
2022-09-12T09:52:53.291Z,19.32
2022-09-12T09:55:25.091Z,19.88
2022-09-12T09:57:53.569Z,19.71
2022-09-12T10:00:37.654Z,20.61
2022-09-12T10:03:25.285Z,21.20
2022-09-12T10:06:00.092Z,20.34
2022-09-12T10:08:32.836Z,20.62
2022-09-12T10:11:06.795Z,20.52
2022-09-12T10:13:40.903Z,19.62
2022-09-12T10:16:20.749Z,19.94
2022-09-12T10:18:48.254Z,19.82
2022-09-12T10:21:17.865Z,19.54
2022-09-12T10:23:46.609Z,19.41
2022-09-12T10:26:17.858Z,20.25
2022-09-12T10:28:52.594Z,20.27
2022-09-12T10:31:31.626Z,20.61
2022-09-12T10:34:01.013Z,20.57
2022-09-12T10:36:38.611Z,20.80
2022-09-12T10:39:06.271Z,20.68
2022-09-12T10:41:41.185Z,20.60
2022-09-12T10:44:15.727Z,20.71
2022-09-12T10:46:42.401Z,20.54
2022-09-12T10:49:29.223Z,20.71
2022-09-12T10:51:59.575Z,20.67
2022-09-12T10:54:28.685Z,20.43
2022-09-12T10:57:17.238Z,21.02
2022-09-12T11:00:06.561Z,20.82
2022-09-12T11:02:51.517Z,20.39
2022-09-12T11:05:44.183Z,20.42
2022-09-12T11:08:39.348Z,19.79
2022-09-12T11:11:16.973Z,19.51
2022-09-12T11:13:59.115Z,19.79
2022-09-12T11:16:42.117Z,19.85
2022-09-12T11:19:48.360Z,19.67
2022-09-12T11:22:26.727Z,19.67
2022-09-12T11:25:09.214Z,19.89
2022-09-12T11:27:38.872Z,20.08
2022-09-12T11:30:11.121Z,20.32
2022-09-12T11:33:06.790Z,20.22
2022-09-12T11:35:36.619Z,20.52
2022-09-12T11:38:31.435Z,20.83
2022-09-12T11:41:04.736Z,20.60
2022-09-12T11:43:36.128Z,20.37
2022-09-12T11:46:28.433Z,20.13
2022-09-12T11:49:01.307Z,20.28
2022-09-12T11:51:41.250Z,20.48
2022-09-12T11:54:26.339Z,20.34
2022-09-12T11:57:08.059Z,20.55
2022-09-12T11:59:44.726Z,20.78
2022-09-12T12:02:26.987Z,20.78
2022-09-12T12:05:02.728Z,20.95
2022-09-12T12:07:43.400Z,20.32
2022-09-12T12:10:37.302Z,20.56
2022-09-12T12:13:13.868Z,20.77
2022-09-12T12:15:48.023Z,20.30
2022-09-12T12:18:20.652Z,20.54
2022-09-12T12:20:47.546Z,20.58
2022-09-12T12:23:31.617Z,20.90
2022-09-12T12:26:03.708Z,20.19
2022-09-12T12:28:42.505Z,20.71
2022-09-12T12:31:10.815Z,20.59
2022-09-12T12:33:37.519Z,20.89
2022-09-12T12:36:07.939Z,20.73
2022-09-12T12:38:34.755Z,20.91
2022-09-12T12:41:19.485Z,21.12
2022-09-12T12:43:51.772Z,20.95
2022-09-12T12:46:24.593Z,20.75
2022-09-12T12:49:00.631Z,20.29
2022-09-12T12:51:36.185Z,20.49
2022-09-12T12:54:07.782Z,20.70
2022-09-12T12:56:42.652Z,20.36
2022-09-12T12:59:19.527Z,21.12
2022-09-12T13:02:04.914Z,20.75
2022-09-12T13:04:32.846Z,20.32
2022-09-12T13:07:08.451Z,20.56
2022-09-12T13:09:52.694Z,19.55
2022-09-12T13:12:33.039Z,20.40
2022-09-12T13:15:02.052Z,20.71
2022-09-12T13:17:34.901Z,20.94
2022-09-12T13:20:26.651Z,20.31
2022-09-12T13:22:53.050Z,20.19
2022-09-12T13:25:27.177Z,20.30
2022-09-12T13:28:14.132Z,19.64
2022-09-12T13:30:45.388Z,19.67
2022-09-12T13:33:21.196Z,20.34
2022-09-12T13:36:32.714Z,20.43
2022-09-12T13:39:11.416Z,20.46
2022-09-12T13:42:07.588Z,20.95
2022-09-12T13:44:44.506Z,20.88
2022-09-12T13:47:16.555Z,20.35
2022-09-12T13:49:44.344Z,20.06
2022-09-12T13:52:31.437Z,20.84
2022-09-12T13:55:01.055Z,20.69
2022-09-12T13:57:30.794Z,20.90
2022-09-12T13:59:59.213Z,20.92
2022-09-12T14:02:29.105Z,20.89
2022-09-12T14:05:11.772Z,21.40
2022-09-12T14:07:56.570Z,21.74
2022-09-12T14:10:39.519Z,21.16
2022-09-12T14:13:21.900Z,21.15
2022-09-12T14:15:55.495Z,20.29
2022-09-12T14:18:27.266Z,21.11
2022-09-12T14:21:01.103Z,20.47
2022-09-12T14:23:31.512Z,20.04
2022-09-12T14:26:02.623Z,20.76
2022-09-12T14:28:31.325Z,20.48
2022-09-12T14:31:16.935Z,21.11
2022-09-12T14:33:49.726Z,20.18
2022-09-12T14:36:26.854Z,20.05
2022-09-12T14:38:58.465Z,20.25
2022-09-12T14:41:29.794Z,20.32
2022-09-12T14:44:00.485Z,20.34
2022-09-12T14:46:37.705Z,20.19
2022-09-12T14:49:25.974Z,19.96
2022-09-12T14:51:57.425Z,19.75
2022-09-12T14:54:36.990Z,19.88
2022-09-12T14:57:31.067Z,19.31
2022-09-12T15:00:24.382Z,19.41
2022-09-12T15:02:57.416Z,19.47
2022-09-12T15:05:27.298Z,19.47
2022-09-12T15:07:59.926Z,19.30
2022-09-12T15:10:28.761Z,19.40
2022-09-12T15:13:17.454Z,19.52
2022-09-12T15:15:49.899Z,19.19
2022-09-12T15:18:18.290Z,18.96
2022-09-12T15:20:46.490Z,19.05
2022-09-12T15:23:31.398Z,18.96
2022-09-12T15:25:58.308Z,18.92
2022-09-12T15:28:26.934Z,18.52
2022-09-12T15:30:56.209Z,18.14
2022-09-12T15:33:25.211Z,17.86
2022-09-12T15:35:52.877Z,17.63
2022-09-12T15:38:24.269Z,17.50
2022-09-12T15:40:53.744Z,18.05
2022-09-12T15:43:22.362Z,17.83
2022-09-12T15:45:51.859Z,17.34
2022-09-12T15:48:19.657Z,17.55
2022-09-12T15:50:46.713Z,17.75
2022-09-12T15:53:16.277Z,17.84
2022-09-12T15:55:43.778Z,18.08
2022-09-12T15:58:10.724Z,18.15
2022-09-12T16:00:37.515Z,17.93
2022-09-12T16:03:04.473Z,18.12
2022-09-12T16:05:31.569Z,18.28
2022-09-12T16:07:58.332Z,17.75
2022-09-12T16:10:30.107Z,17.84
2022-09-12T16:12:57.241Z,17.68
2022-09-12T16:15:25.398Z,17.75
2022-09-12T16:17:52.431Z,17.67
2022-09-12T16:20:19.760Z,17.67
2022-09-12T16:22:46.825Z,17.55
2022-09-12T16:25:13.903Z,17.69
2022-09-12T16:27:40.877Z,17.80
2022-09-12T16:30:08.440Z,17.67
2022-09-12T16:32:35.619Z,17.06
2022-09-12T16:35:02.423Z,17.14
2022-09-12T16:37:29.231Z,17.65
2022-09-12T16:39:56.034Z,17.47
2022-09-12T16:42:23.277Z,17.58
2022-09-12T16:44:50.121Z,18.15
2022-09-12T16:47:16.944Z,17.27
2022-09-12T16:49:43.632Z,17.51
2022-09-12T16:52:11.591Z,17.58
2022-09-12T16:54:38.436Z,17.71
2022-09-12T16:57:06.584Z,17.93
2022-09-12T16:59:33.401Z,18.45
2022-09-12T17:02:00.377Z,17.71
2022-09-12T17:04:27.242Z,17.76
2022-09-12T17:06:54.185Z,17.71
2022-09-12T17:09:22.042Z,17.14
2022-09-12T17:11:49.791Z,17.58
2022-09-12T17:14:16.634Z,17.80
2022-09-12T17:16:51.442Z,17.81
2022-09-12T17:19:22.223Z,17.53
2022-09-12T17:21:50.169Z,17.67
2022-09-12T17:24:17.965Z,17.77
2022-09-12T17:26:45.364Z,17.34
2022-09-12T17:29:16.556Z,17.38
2022-09-12T17:31:44.538Z,17.43
2022-09-12T17:34:15.258Z,17.36
2022-09-12T17:36:45.816Z,17.38
2022-09-12T17:39:13.786Z,17.71
2022-09-12T17:41:45.876Z,16.69
2022-09-12T17:44:15.005Z,17.26
2022-09-12T17:46:42.218Z,17.27
2022-09-12T17:49:12.968Z,17.23
2022-09-12T17:51:40.520Z,17.05
2022-09-12T17:54:13.012Z,17.17
2022-09-12T17:56:40.469Z,17.40
2022-09-12T17:59:08.899Z,17.12
2022-09-12T18:01:54.160Z,16.71
2022-09-12T18:04:21.116Z,16.38
2022-09-12T18:06:48.987Z,16.58
2022-09-12T18:09:21.186Z,16.19
2022-09-12T18:11:48.887Z,16.68
2022-09-12T18:14:17.328Z,16.74
2022-09-12T18:16:45.572Z,16.81
2022-09-12T18:19:12.894Z,16.62
2022-09-12T18:21:39.954Z,16.47
2022-09-12T18:24:07.261Z,16.41
2022-09-12T18:26:34.664Z,16.39
2022-09-12T18:29:01.415Z,16.33
2022-09-12T18:31:30.072Z,15.83
2022-09-12T18:33:57.868Z,16.08
2022-09-12T18:36:24.640Z,16.21
2022-09-12T18:38:51.536Z,16.22
2022-09-12T18:41:21.035Z,15.99
2022-09-12T18:43:49.069Z,15.64
2022-09-12T18:46:18.204Z,15.75
2022-09-12T18:48:46.271Z,15.92
2022-09-12T18:51:18.040Z,15.37
2022-09-12T18:53:53.591Z,15.89
2022-09-12T18:56:21.781Z,15.64
2022-09-12T18:58:53.955Z,15.48
2022-09-12T19:01:30.413Z,15.61
2022-09-12T19:03:57.948Z,15.69
2022-09-12T19:06:27.816Z,15.54
2022-09-12T19:08:56.387Z,15.98
2022-09-12T19:11:24.524Z,15.28
2022-09-12T19:13:53.325Z,15.57
2022-09-12T19:16:23.368Z,15.55
2022-09-12T19:18:52.451Z,15.44
2022-09-12T19:21:25.552Z,15.47
2022-09-12T19:23:54.093Z,15.36
2022-09-12T19:26:21.752Z,15.34
2022-09-12T19:28:49.178Z,15.44
2022-09-12T19:31:22.028Z,15.45
2022-09-12T19:33:49.493Z,14.99
2022-09-12T19:36:41.207Z,15.01
2022-09-12T19:39:07.357Z,15.43
2022-09-12T19:41:34.681Z,15.65
2022-09-12T19:44:01.612Z,15.15
2022-09-12T19:46:28.422Z,15.11
2022-09-12T19:48:55.503Z,14.90
2022-09-12T19:51:24.073Z,15.42
2022-09-12T19:53:51.807Z,15.35
2022-09-12T19:56:19.210Z,15.12
2022-09-12T19:58:49.952Z,14.76
2022-09-12T20:01:29.929Z,15.05
2022-09-12T20:03:57.925Z,14.84
2022-09-12T20:06:25.350Z,15.03
2022-09-12T20:08:52.022Z,14.97
2022-09-12T20:11:20.746Z,14.81
2022-09-12T20:13:47.884Z,14.43
2022-09-12T20:16:21.305Z,14.74
2022-09-12T20:18:54.186Z,14.83
2022-09-12T20:21:25.381Z,14.64
2022-09-12T20:23:52.518Z,14.60
2022-09-12T20:26:20.496Z,14.88
2022-09-12T20:28:50.000Z,14.89
2022-09-12T20:31:16.865Z,14.56
2022-09-12T20:33:45.812Z,14.78
2022-09-12T20:36:16.885Z,14.73
2022-09-12T20:38:51.406Z,14.74
2022-09-12T20:41:20.590Z,14.51
2022-09-12T20:43:55.375Z,14.70
2022-09-12T20:46:22.825Z,14.69
2022-09-12T20:48:50.961Z,14.43
2022-09-12T20:51:18.636Z,14.26
2022-09-12T20:53:45.528Z,14.23
2022-09-12T20:56:12.202Z,14.19
2022-09-12T20:58:43.558Z,14.31
2022-09-12T21:01:12.022Z,14.52
2022-09-12T21:03:39.563Z,14.45
2022-09-12T21:06:07.582Z,14.37
2022-09-12T21:08:35.278Z,14.33
2022-09-12T21:11:02.319Z,14.30
2022-09-12T21:13:29.451Z,14.37
2022-09-12T21:16:08.122Z,14.50
2022-09-12T21:18:35.952Z,14.52
2022-09-12T21:21:03.496Z,14.51
2022-09-12T21:23:30.211Z,14.51
2022-09-12T21:25:58.551Z,14.63
2022-09-12T21:28:25.775Z,14.61
2022-09-12T21:30:52.799Z,14.57
2022-09-12T21:33:21.202Z,14.74
2022-09-12T21:35:48.674Z,14.30
2022-09-12T21:38:16.412Z,14.58
2022-09-12T21:40:43.155Z,14.44
2022-09-12T21:43:12.678Z,14.63
2022-09-12T21:45:40.325Z,14.83
2022-09-12T21:48:06.996Z,14.80
2022-09-12T21:50:33.623Z,14.92
2022-09-12T21:53:00.372Z,14.96
2022-09-12T21:55:27.618Z,14.98
2022-09-12T21:57:58.031Z,14.86
2022-09-12T22:00:25.003Z,15.10
2022-09-12T22:02:51.710Z,15.11
2022-09-12T22:05:19.684Z,15.05
2022-09-12T22:07:46.536Z,15.28
2022-09-12T22:10:13.315Z,15.30
2022-09-12T22:12:45.341Z,15.26
2022-09-12T22:15:39.010Z,15.12
2022-09-12T22:18:00.411Z,15.31
2022-09-12T22:20:27.167Z,15.36
2022-09-12T22:23:12.490Z,15.42
2022-09-12T22:25:39.459Z,15.46
2022-09-12T22:28:06.181Z,15.50
2022-09-12T22:30:33.001Z,15.40
2022-09-12T22:32:59.668Z,15.53
2022-09-12T22:35:26.321Z,15.16
2022-09-12T22:37:53.235Z,15.12
2022-09-12T22:40:20.004Z,15.17
2022-09-12T22:42:46.896Z,15.32
2022-09-12T22:45:13.662Z,15.15
2022-09-12T22:47:40.347Z,15.20
2022-09-12T22:50:07.522Z,15.14
2022-09-12T22:52:34.232Z,15.26
2022-09-12T22:55:00.882Z,15.17
2022-09-12T22:57:27.655Z,15.38
2022-09-12T22:59:54.368Z,15.35
2022-09-12T23:02:21.102Z,15.37
2022-09-12T23:04:52.373Z,15.37
2022-09-12T23:07:19.084Z,15.30
2022-09-12T23:09:46.388Z,15.18
2022-09-12T23:12:14.317Z,15.21
2022-09-12T23:14:41.033Z,15.03
2022-09-12T23:17:07.703Z,14.87
2022-09-12T23:19:34.393Z,14.69
2022-09-12T23:22:01.050Z,14.70
2022-09-12T23:24:27.737Z,14.70
2022-09-12T23:26:54.489Z,14.80
2022-09-12T23:29:21.207Z,14.82
2022-09-12T23:31:48.720Z,15.04
2022-09-12T23:34:15.741Z,15.04
2022-09-12T23:36:42.398Z,15.21
2022-09-12T23:39:09.962Z,15.16
2022-09-12T23:41:36.846Z,15.05
2022-09-12T23:44:03.662Z,14.96
2022-09-12T23:46:30.351Z,14.90
2022-09-12T23:48:56.959Z,14.83
2022-09-12T23:51:23.674Z,14.87
2022-09-12T23:53:50.383Z,14.60
2022-09-12T23:56:17.103Z,14.81
2022-09-12T23:58:43.882Z,14.60
